Weather observations for the past three days for
Phoenix-Mesa Gateway Airport
Imperial (Metric)
Date Time (mst) Wind (mph) Vis. (mi.) Weather Sky Cond. Temperature (ºF) Relative Humidity Wind Chill (°F) Heat Index (°F) Pressure Precipitation (in)
Air Dwpt 6 hour altimeter (in) sea level (mb) 1 hr 3 hr 6 hr
Max. Min.
03 05:50 SE 5 10.00 Fair CLR 80.6 69.8 70% 84 29.93 0.0
03 04:52 SE 5 10.00 Fair CLR 82.4 69.8 66% 86 29.91 0.0
03 04:35 SE 6 10.00 Fair CLR 82 68.4 63% 85 29.91 0.0
03 04:15 E 6 10.00 Fair CLR 82.6 67.8 61% 86 29.91 0.0
03 03:55 SE 5 10.00 Fair CLR 82.8 67.6 60% 86 29.91 0.0
03 03:35 E 5 10.00 Fair CLR 83.7 67.1 58% 86 29.91 0.0
03 03:15 E 6 10.00 Fair CLR 84 66.9 57% 87 29.91 0.0
03 02:55 NE 5 10.00 Fair CLR 84.2 67.1 57% 87 29.91 0.0
03 02:35 E 6 10.00 Fair CLR 85.8 62.6 46% 87 29.91 0.0
03 02:15 SW 7 10.00 Fair CLR 86.7 61.5 43% 87 29.9 0.0
03 01:55 SW 7 10.00 Fair CLR 86 64.9 49% 88 29.9 0.0
03 01:30 SE 7 10.00 Fair CLR 86.7 65.7 50% 89 29.91 0.0
03 01:15 SE 6 10.00 Fair CLR 87.8 65.5 48% 90 29.91 0.0
03 00:55 S 5 10.00 Fair CLR 88.5 64.9 46% 90 29.9 0.0
03 00:35 SW 5 10.00 Fair CLR 88.3 64.8 46% 90 29.9 0.0
03 00:15 W 9 10.00 Fair CLR 89.4 64.2 43% 91 29.9 0.0
02 23:51 W 7 10.00 Fair CLR 89.6 64.4 43% 91 29.9 0.0
02 22:51 SW 7 10.00 Fair CLR 91.4 62.6 38% 92 29.89 0.0
02 21:51 SW 6 10.00 Fair CLR 91.4 62.6 38% 92 29.9 0.0
02 20:50 W 6 10.00 Partly Cloudy SCT100 95 60.8 32% 95 29.89 0.0
02 19:51 W 9 10.00 Fair CLR 95 59 30% 94 29.86 0.0
02 18:47 W 9 10.00 Fair CLR 96.8 59 28% 96 29.85 0.0
02 17:49 NW 7 10.00 Fair CLR 98.6 57.2 25% 98 29.84 0.0
02 16:51 NW 6 10.00 Partly Cloudy SCT095 100.4 57.2 24% 100 29.85 0.0
02 15:48 NW 7 10.00 A Few Clouds FEW100 100.4 59 25% 100 29.87 0.0
02 14:47 SW 14 10.00 A Few Clouds FEW120 98.6 60.8 29% 99 29.9 0.0
02 13:52 SW 16 10.00 Partly Cloudy SCT100 98.6 60.8 29% 99 29.92 0.0
02 12:51 W 13 10.00 Partly Cloudy SCT100 96.8 62.6 32% 98 29.95 0.0
02 11:51 SW 7 10.00 Fair CLR 95 64.4 36% 97 29.97 0.0
02 09:50 S 6 10.00 A Few Clouds FEW100 91.4 68 46% 96 30 0.0
02 08:50 S 6 10.00 A Few Clouds FEW100 87.8 69.8 55% 93 30 0.0
02 07:50 SE 10 10.00 Fair CLR 84.2 69.8 62% 88 29.99 0.0
02 06:47 E 10 10.00 Fair CLR 80.6 69.8 70% 84 29.97 0.0
02 05:51 SE 8 10.00 Fair CLR 80.6 68 66% 83 29.96 0.0
02 04:50 SE 6 10.00 Fair CLR 82.4 68 62% 85 29.95 0.0
02 04:35 SE 8 10.00 Fair CLR 81.7 68.4 64% 85 29.94 0.0
02 04:15 SE 8 10.00 Fair CLR 82 68.2 63% 85 29.94 0.0
02 03:55 E 7 10.00 Fair CLR 83.1 68 60% 86 29.94 0.0
02 03:35 SE 8 10.00 Fair CLR 82.4 68.4 63% 86 29.94 0.0
02 03:15 E 6 10.00 Fair CLR 83.1 68.2 61% 86 29.94 0.0
02 02:55 SE 7 10.00 Fair CLR 83.5 68.5 61% 87 29.94 0.0
02 02:35 SE 6 10.00 Fair CLR 83.3 69.1 62% 87 29.94 0.0
02 02:15 SE 6 10.00 Fair CLR 83.8 68.7 60% 87 29.94 0.0
02 01:55 SE 6 10.00 Fair CLR 83.7 68.9 61% 87 29.94 0.0
02 01:35 SE 7 10.00 Fair CLR 84.4 68.7 59% 88 29.94 0.0
02 01:15 SE 7 10.00 Fair CLR 84.6 69.4 61% 89 29.94 0.0
02 00:55 SE 8 10.00 Fair CLR 86.2 68.5 56% 90 29.94 0.0
02 00:35 E 8 10.00 Fair CLR 86.7 68.9 55% 91 29.94 0.0
02 00:15 SE 7 10.00 Fair CLR 87.4 68.5 54% 91 29.93 0.0
01 23:50 E 7 10.00 Fair CLR 87.8 68 52% 91 29.93 0.0
01 22:56 S 7 10.00 Fair CLR 87.8 68 52% 91 29.93 0.0
01 21:47 SE 7 10.00 Fair CLR 89.6 68 49% 93 29.93 0.0
01 20:56 Calm 10.00 Fair CLR 93.2 64.4 39% 95 29.91 0.0
01 19:48 Calm 10.00 Fair CLR 95 60.8 32% 95 29.88 0.0
01 18:50 Calm 10.00 Fair CLR 95 60.8 32% 95 29.87 0.0
01 17:54 SW 7 10.00 A Few Clouds FEW100 96.8 62.6 32% 98 29.88 0.0
01 16:47 W 10 10.00 Partly Cloudy SCT070 96.8 62.6 32% 98 29.89 0.0
01 15:50 E 9 10.00 A Few Clouds FEW120 96.8 66.2 37% 100 29.9 0.0
01 14:55 SW 8 10.00 Fair CLR 95 66.2 39% 98 29.92 0.0
01 13:55 Calm 10.00 A Few Clouds FEW080 95 66.2 39% 98 29.95 0.0
01 12:50 S 5 10.00 A Few Clouds FEW080 93.2 66.2 41% 96 29.97 0.0
01 11:47 Vrbl 7 10.00 Fair CLR 89.6 68 49% 93 30 0.0
01 10:50 S 5 10.00 Fair CLR 89.6 66.2 46% 92 30.02 0.0
01 09:50 S 5 10.00 Fair CLR 86 66.2 52% 88 30.02 0.0
01 08:47 SE 8 10.00 Fair CLR 82.4 68 62% 85 30 0.0
01 07:49 SE 6 10.00 Fair CLR 78.8 68 70% 81 30 0.0
01 06:53 E 6 10.00 Fair CLR 75.2 66.2 74% 77 29.99 0.0
01 05:55 SE 5 10.00 Fair CLR 73.4 68 83% 29.98 0.0
01 04:50 SE 6 10.00 Fair CLR 73.4 68 83% 29.96 0.0
01 04:35 SE 5 10.00 Fair CLR 75.2 68 78% 76 29.96 0.0
01 04:15 E 7 10.00 Fair CLR 76.1 67.6 75% 77 29.96 0.0
01 03:55 E 5 10.00 Fair CLR 75.6 67.6 77% 77 29.96 0.0
01 03:35 E 6 10.00 Fair CLR 75.4 67.8 77% 76 29.96 0.0
01 03:15 SE 7 10.00 Fair CLR 75.7 68.2 77% 77 29.96 0.0
01 02:55 E 5 10.00 Fair CLR 75.7 68.9 79% 77 29.96 0.0
01 02:35 Calm 10.00 Fair CLR 75.7 68.7 79% 77 29.97 0.0
01 02:15 Calm 10.00 Fair CLR 75.7 68 77% 77 29.97 0.0
01 01:55 Calm 10.00 Fair CLR 76.6 67.5 73% 78 29.97 0.0
01 01:35 E 3 10.00 Fair CLR 76.8 67.5 73% 78 29.97 0.0
01 01:15 SE 3 10.00 Fair CLR 77 68 74% 79 29.97 0.0
01 00:55 Calm 10.00 Fair CLR 76.8 68 74% 78 29.97 0.0
01 00:35 Calm 10.00 Fair CLR 75.9 68.5 78% 77 29.97 0.0
01 00:15 E 5 10.00 Fair CLR 76.6 68.4 76% 78 29.96 0.0
31 23:50 SE 7 10.00 Fair CLR 75.2 69.8 83% 75 29.96 0.0
31 22:48 SE 6 10.00 Fair CLR 78.8 68 70% 81 29.96 0.0
31 21:54 E 6 10.00 Fair CLR 80.6 66.2 62% 83 29.96 0.0
31 20:50 SE 7 10.00 Fair CLR 80.6 64.4 58% 82 29.95 0.0
31 19:54 S 7 10.00 Fair CLR 82.4 66.2 58% 85 29.94 0.0
31 18:48 Calm 10.00 Fair CLR 86 64.4 49% 87 29.91 0.0
31 17:50 E 5 10.00 Fair CLR 87.8 60.8 40% 88 29.91 0.0
31 16:47 E 12 10.00 A Few Clouds FEW120 86 66.2 52% 88 29.92 0.0
31 15:48 E 12 G 21 10.00 Partly Cloudy SCT120 84.2 64.4 51% 86 29.94 0.0
31 14:47 SE 10 G 17 10.00 Fair CLR 82.4 66.2 58% 85 29.99 0.0
31 13:51 E 9 10.00 Fair CLR 80.6 66.2 62% 83 30.02 0.0
31 12:47 SE 13 G 18 10.00 Overcast SCT050 OVC120 75.2 68 78% 76 30.04 0.0
31 11:47 SE 20 G 25 10.00 Overcast OVC120 75.2 69.8 83% 75 30.04 0.0
31 10:47 SE 10 10.00 Light Rain OVC120 78.8 69.8 74% 81 30.06 0.0
31 09:48 NE 10 10.00 Light Rain SCT050 SCT065 OVC100 75.2 69.8 83% 75 30.05 0.0
31 08:47 NE 14 10.00 Light Rain SCT085 OVC110 75.2 69.8 83% 75 30.05 0.0
31 07:58 SE 20 G 20 10.00 Thunderstorm Rain SCT040 OVC080 75.2 69.8 83% 75 30.04 0.0
31 06:59 E 21 G 28 10.00 Thunderstorm in Vicinity Light Rain and Breezy SCT040 SCT100 BKN120 75.2 69.8 83% 75 29.98 0.0
Date Time (mst) Wind (mph) Vis. (mi.) Weather Sky Cond. Air Dwpt Max. Min. Relative Humidity Wind Chill (°F) Heat Index (°F) altimeter (in) sea level (mb) 1 hr 3 hr 6 hr
6 hour
Temperature (ºF) Pressure Precipitation (in)